Parker, Idaho
Current Conditions -  °F | °C
As of 2:53 PM on Sunday 23 Nov 2014 (Local Time) from KRXE Reporting Station
Clear Clear  
Wind Chill: 31°   Ceiling: Unl
Heat Index: 36°   Visibility: 10mi
Dew Point: 19°   Wind: 6mph
Humidity: 50%   Direction: 220°SW
Pressure: 30.07"   Gusts: NA
Location:  43.96°N, 111.76°W
Report Text: KRXE 232153Z AUTO 22005KT 10SM CLR 02/M07 A3007 RMK AO2 SLP202 T00221072
Loading
Personal Weather Stations






























Interactive Weather Map New forecast layout! Learn more

10-Day Weather Forecast

Advertisements
Track Severe Weather on mobile